createdAt,value
2022-08-23T00:00:13.521Z,3.67
2022-08-23T00:02:41.228Z,3.33
2022-08-23T00:05:10.655Z,3.70
2022-08-23T00:07:39.373Z,3.05
2022-08-23T00:10:08.118Z,3.30
2022-08-23T00:12:35.275Z,2.75
2022-08-23T00:15:02.423Z,3.38
2022-08-23T00:17:34.560Z,3.63
2022-08-23T00:20:07.297Z,3.35
2022-08-23T00:22:34.573Z,3.60
2022-08-23T00:25:01.710Z,3.30
2022-08-23T00:27:28.996Z,3.47
2022-08-23T00:29:56.756Z,3.70
2022-08-23T00:32:28.048Z,3.55
2022-08-23T00:34:55.363Z,3.30
2022-08-23T00:37:22.862Z,3.40
2022-08-23T00:39:50.191Z,3.30
2022-08-23T00:42:46.038Z,3.30
2022-08-23T00:45:34.302Z,3.30
2022-08-23T00:48:01.893Z,3.20
2022-08-23T00:50:35.206Z,3.30
2022-08-23T00:53:08.386Z,3.13
2022-08-23T00:55:35.943Z,3.33
2022-08-23T00:58:03.375Z,3.00
2022-08-23T01:00:31.214Z,3.08
2022-08-23T01:02:58.399Z,3.30
2022-08-23T01:05:29.011Z,3.22
2022-08-23T01:07:57.887Z,3.10
2022-08-23T01:10:30.556Z,3.30
2022-08-23T01:13:14.864Z,3.70
2022-08-23T01:15:49.589Z,3.20
2022-08-23T01:18:18.418Z,3.38
2022-08-23T01:20:57.162Z,3.40
2022-08-23T01:23:27.571Z,3.72
2022-08-23T01:25:54.898Z,3.45
2022-08-23T01:28:22.051Z,3.45
2022-08-23T01:30:49.221Z,3.40
2022-08-23T01:33:16.783Z,3.53
2022-08-23T01:35:47.243Z,3.80
2022-08-23T01:38:15.035Z,3.50
2022-08-23T01:40:42.923Z,3.72
2022-08-23T01:43:10.593Z,3.35
2022-08-23T01:45:39.842Z,3.55
2022-08-23T01:48:07.085Z,3.63
2022-08-23T01:50:34.641Z,3.40
2022-08-23T01:53:02.006Z,3.80
2022-08-23T01:55:29.375Z,3.20
2022-08-23T01:57:57.614Z,3.40
2022-08-23T02:00:26.636Z,3.33
2022-08-23T02:02:53.778Z,3.92
2022-08-23T02:05:21.079Z,3.50
2022-08-23T02:07:49.067Z,3.33
2022-08-23T02:10:16.414Z,3.47
2022-08-23T02:12:43.676Z,3.42
2022-08-23T02:15:11.030Z,3.58
2022-08-23T02:17:38.294Z,3.83
2022-08-23T02:20:06.007Z,3.65
2022-08-23T02:22:34.054Z,3.40
2022-08-23T02:25:01.551Z,3.72
2022-08-23T02:27:29.327Z,3.95
2022-08-23T02:29:56.494Z,3.85
2022-08-23T02:32:27.288Z,3.97
2022-08-23T02:35:05.032Z,3.65
2022-08-23T02:37:33.066Z,3.75
2022-08-23T02:40:00.313Z,3.33
2022-08-23T02:42:27.772Z,3.42
2022-08-23T02:44:55.472Z,4.00
2022-08-23T02:47:23.600Z,3.38
2022-08-23T02:49:51.743Z,3.80
2022-08-23T02:52:18.939Z,3.55
2022-08-23T02:54:46.066Z,3.58
2022-08-23T02:57:13.245Z,4.18
2022-08-23T02:59:40.438Z,3.60
2022-08-23T03:02:08.582Z,3.92
2022-08-23T03:04:35.805Z,4.30
2022-08-23T03:07:02.926Z,3.85
2022-08-23T03:09:30.153Z,4.20
2022-08-23T03:11:57.417Z,4.05
2022-08-23T03:14:28.015Z,4.32
2022-08-23T03:16:58.301Z,4.90
2022-08-23T03:19:25.675Z,4.72
2022-08-23T03:21:52.835Z,4.28
2022-08-23T03:24:20.024Z,4.47
2022-08-23T03:26:47.228Z,4.65
2022-08-23T03:29:14.877Z,4.20
2022-08-23T03:31:42.145Z,4.05
2022-08-23T03:34:09.447Z,4.40
2022-08-23T03:36:36.603Z,4.20
2022-08-23T03:39:04.671Z,4.30
2022-08-23T03:41:31.802Z,4.40
2022-08-23T03:43:59.015Z,4.00
2022-08-23T03:46:26.298Z,4.30
2022-08-23T03:48:59.929Z,4.28
2022-08-23T03:51:27.908Z,4.40
2022-08-23T03:53:55.219Z,4.20
2022-08-23T03:56:22.323Z,4.53
2022-08-23T03:58:50.292Z,4.00
2022-08-23T04:01:18.767Z,4.25
2022-08-23T04:03:47.032Z,4.00
2022-08-23T04:06:14.428Z,4.20
2022-08-23T04:08:41.872Z,4.55
2022-08-23T04:11:09.272Z,3.90
2022-08-23T04:13:36.642Z,4.50
2022-08-23T04:16:05.057Z,4.45
2022-08-23T04:18:33.794Z,4.57
2022-08-23T04:21:03.186Z,3.88
2022-08-23T04:23:30.511Z,4.43
2022-08-23T04:25:58.065Z,4.32
2022-08-23T04:28:26.226Z,4.95
2022-08-23T04:30:53.446Z,4.07
2022-08-23T04:33:21.290Z,4.20
2022-08-23T04:35:48.623Z,4.25
2022-08-23T04:38:24.053Z,4.95
2022-08-23T04:41:11.340Z,4.22
2022-08-23T04:43:38.755Z,4.57
2022-08-23T04:46:05.974Z,4.60
2022-08-23T04:48:33.337Z,5.15
2022-08-23T04:51:01.047Z,4.50
2022-08-23T04:53:30.372Z,4.80
2022-08-23T04:55:57.518Z,4.43
2022-08-23T04:58:24.654Z,4.50
2022-08-23T05:00:54.982Z,4.50
2022-08-23T05:03:22.155Z,4.60
2022-08-23T05:05:49.267Z,4.30
2022-08-23T05:08:16.450Z,4.40
2022-08-23T05:10:43.578Z,5.03
2022-08-23T05:13:10.952Z,4.60
2022-08-23T05:15:38.066Z,4.53
2022-08-23T05:18:05.231Z,4.55
2022-08-23T05:20:32.645Z,4.60
2022-08-23T05:23:00.866Z,4.50
2022-08-23T05:25:48.041Z,4.63
2022-08-23T05:28:15.315Z,4.38
2022-08-23T05:30:42.695Z,3.88
2022-08-23T05:33:23.926Z,4.63
2022-08-23T05:35:51.218Z,5.15
2022-08-23T05:38:20.770Z,4.50
2022-08-23T05:40:52.612Z,3.97
2022-08-23T05:43:22.236Z,4.43
2022-08-23T05:45:49.371Z,3.80
2022-08-23T05:48:18.372Z,4.10
2022-08-23T05:50:45.644Z,4.20
2022-08-23T05:53:12.859Z,4.10
2022-08-23T05:55:39.995Z,4.35
2022-08-23T05:58:07.161Z,3.65
2022-08-23T06:00:38.007Z,3.63
2022-08-23T06:03:08.748Z,3.42
2022-08-23T06:05:40.626Z,4.13
2022-08-23T06:08:08.105Z,4.00
2022-08-23T06:10:39.359Z,3.65
2022-08-23T06:13:09.206Z,3.88
2022-08-23T06:15:36.390Z,4.05
2022-08-23T06:18:03.559Z,3.80
2022-08-23T06:20:30.759Z,3.33
2022-08-23T06:22:57.935Z,3.20
2022-08-23T06:25:25.101Z,3.45
2022-08-23T06:27:52.602Z,3.47
2022-08-23T06:30:19.759Z,3.80
2022-08-23T06:32:47.027Z,3.50
2022-08-23T06:35:37.568Z,3.33
2022-08-23T06:38:03.615Z,3.33
2022-08-23T06:40:30.796Z,3.72
2022-08-23T06:42:58.651Z,3.55
2022-08-23T06:45:33.880Z,3.80
2022-08-23T06:48:02.699Z,3.50
2022-08-23T06:50:32.477Z,3.08
2022-08-23T06:52:59.918Z,3.00
2022-08-23T06:55:27.060Z,3.53
2022-08-23T06:57:54.228Z,2.70
2022-08-23T07:00:22.523Z,2.65
2022-08-23T07:02:50.401Z,3.00
2022-08-23T07:05:17.944Z,2.80
2022-08-23T07:07:45.138Z,2.40
2022-08-23T07:10:12.359Z,2.60
2022-08-23T07:12:42.319Z,2.35
2022-08-23T07:15:10.662Z,2.42
2022-08-23T07:17:37.806Z,2.28
2022-08-23T07:20:05.280Z,2.35
2022-08-23T07:22:32.414Z,2.30
2022-08-23T07:24:59.728Z,2.40
2022-08-23T07:27:26.878Z,2.60
2022-08-23T07:29:54.611Z,2.10
2022-08-23T07:32:21.801Z,2.10
2022-08-23T07:34:49.175Z,1.90
2022-08-23T07:37:17.326Z,1.60
2022-08-23T07:39:44.656Z,2.00
2022-08-23T07:42:23.933Z,2.03
2022-08-23T07:44:53.259Z,1.92
2022-08-23T07:47:21.340Z,2.00
2022-08-23T07:49:48.630Z,1.80
2022-08-23T07:52:15.744Z,2.10
2022-08-23T07:54:48.371Z,2.00
2022-08-23T07:59:43.599Z,2.22
2022-08-23T08:02:10.805Z,1.67
2022-08-23T08:04:38.311Z,1.80
2022-08-23T08:07:18.797Z,1.80
2022-08-23T08:09:47.903Z,1.77
2022-08-23T08:12:15.073Z,1.88
2022-08-23T08:14:42.924Z,2.00
2022-08-23T08:17:10.507Z,2.15
2022-08-23T08:19:37.794Z,1.60
2022-08-23T08:22:04.939Z,1.80
2022-08-23T08:24:32.113Z,1.83
2022-08-23T08:26:59.339Z,1.90
2022-08-23T08:29:26.572Z,2.03
2022-08-23T08:31:54.537Z,1.58
2022-08-23T08:34:22.035Z,2.40
2022-08-23T08:36:50.638Z,1.70
2022-08-23T08:39:20.234Z,1.92
2022-08-23T08:41:50.803Z,1.67
2022-08-23T08:44:47.630Z,1.95
2022-08-23T08:47:33.614Z,1.80
2022-08-23T08:50:06.803Z,1.80
2022-08-23T08:52:39.486Z,1.80
2022-08-23T08:55:10.666Z,1.85
2022-08-23T08:57:40.075Z,2.05
2022-08-23T09:00:33.721Z,1.70
2022-08-23T09:03:02.815Z,1.80
2022-08-23T09:05:32.530Z,1.73
2022-08-23T09:08:18.464Z,1.60
2022-08-23T09:10:54.071Z,1.90
2022-08-23T09:13:44.163Z,1.67
2022-08-23T09:16:13.395Z,1.80
2022-08-23T09:18:40.594Z,2.00
2022-08-23T09:21:09.613Z,1.70
2022-08-23T09:23:42.353Z,1.83
2022-08-23T09:26:24.143Z,1.93
2022-08-23T09:28:57.278Z,2.00
2022-08-23T09:31:44.679Z,1.80
2022-08-23T09:34:17.307Z,1.77
2022-08-23T09:36:44.530Z,1.75
2022-08-23T09:39:30.500Z,1.73
2022-08-23T09:41:58.768Z,1.67
2022-08-23T09:44:38.181Z,2.30
2022-08-23T09:47:06.983Z,2.22
2022-08-23T09:49:34.171Z,2.30
2022-08-23T09:52:03.178Z,2.00
2022-08-23T09:54:33.178Z,2.08
2022-08-23T09:57:10.743Z,1.80
2022-08-23T09:59:45.817Z,1.90
2022-08-23T10:02:16.383Z,2.13
2022-08-23T10:04:55.460Z,1.92
2022-08-23T10:07:40.358Z,1.90
2022-08-23T10:10:23.567Z,1.83
2022-08-23T10:12:51.460Z,1.88
2022-08-23T10:15:18.756Z,2.20
2022-08-23T10:17:47.334Z,2.10
2022-08-23T10:20:22.120Z,1.65
2022-08-23T10:23:09.504Z,1.90
2022-08-23T10:25:38.983Z,1.98
2022-08-23T10:28:25.106Z,2.05
2022-08-23T10:30:57.274Z,2.10
2022-08-23T10:33:30.590Z,1.90
2022-08-23T10:36:07.176Z,2.17
2022-08-23T10:38:43.184Z,2.10
2022-08-23T10:41:16.940Z,2.13
2022-08-23T10:43:53.643Z,1.77
2022-08-23T10:46:22.757Z,2.33
2022-08-23T10:48:53.781Z,1.95
2022-08-23T10:51:42.882Z,2.10
2022-08-23T10:54:10.070Z,2.17
2022-08-23T10:56:42.894Z,2.28
2022-08-23T10:59:16.915Z,2.10
2022-08-23T11:01:50.437Z,2.13
2022-08-23T11:04:23.046Z,2.42
2022-08-23T11:06:55.426Z,2.25
2022-08-23T11:09:22.547Z,2.45
2022-08-23T11:12:08.348Z,2.17
2022-08-23T11:14:41.011Z,1.83
2022-08-23T11:17:34.207Z,2.20
2022-08-23T11:20:02.900Z,1.40
2022-08-23T11:22:48.879Z,1.50
2022-08-23T11:25:16.193Z,1.80
2022-08-23T11:27:44.449Z,1.80
2022-08-23T11:30:31.342Z,1.60
2022-08-23T11:33:18.899Z,1.90
2022-08-23T11:35:49.120Z,2.20
2022-08-23T11:38:17.252Z,1.60
2022-08-23T11:40:52.701Z,2.00
2022-08-23T11:43:34.466Z,1.50
2022-08-23T11:46:20.648Z,1.50
2022-08-23T11:48:56.206Z,2.20
2022-08-23T11:51:58.964Z,1.77
2022-08-23T11:54:29.412Z,2.13
2022-08-23T11:56:56.555Z,1.65
2022-08-23T11:59:29.989Z,2.00
2022-08-23T12:01:59.380Z,1.45
2022-08-23T12:04:55.583Z,1.83
2022-08-23T12:07:41.535Z,1.40
2022-08-23T12:10:09.855Z,2.03
2022-08-23T12:12:40.980Z,1.50
2022-08-23T12:15:13.256Z,2.83
2022-08-23T12:17:40.580Z,1.77
2022-08-23T12:20:09.521Z,1.90
2022-08-23T12:22:58.113Z,1.80
2022-08-23T12:25:25.486Z,2.05
2022-08-23T12:28:15.937Z,1.70
2022-08-23T12:30:54.105Z,1.85
2022-08-23T12:33:27.412Z,1.60
2022-08-23T12:36:03.194Z,1.73
2022-08-23T12:38:38.386Z,2.15
2022-08-23T12:41:34.876Z,1.75
2022-08-23T12:44:04.470Z,1.83
2022-08-23T12:46:31.674Z,2.00
2022-08-23T12:48:58.856Z,2.10
2022-08-23T12:51:26.089Z,1.58
2022-08-23T12:53:53.579Z,2.03
2022-08-23T12:56:32.213Z,1.80
2022-08-23T12:59:03.255Z,2.00
2022-08-23T13:01:36.596Z,1.90
2022-08-23T13:04:03.814Z,1.83
2022-08-23T13:06:37.594Z,1.85
2022-08-23T13:09:09.326Z,1.80
2022-08-23T13:11:37.607Z,1.42
2022-08-23T13:14:24.605Z,1.83
2022-08-23T13:16:52.291Z,1.98
2022-08-23T13:19:23.912Z,1.75
2022-08-23T13:22:09.849Z,1.50
2022-08-23T13:24:41.447Z,1.80
2022-08-23T13:27:38.169Z,1.65
2022-08-23T13:30:08.934Z,2.08
2022-08-23T13:32:41.977Z,1.80
2022-08-23T13:35:26.585Z,1.90
2022-08-23T13:37:55.179Z,1.73
2022-08-23T13:40:23.999Z,1.88
2022-08-23T13:42:52.852Z,1.90
2022-08-23T13:45:22.116Z,1.92
2022-08-23T13:47:51.707Z,1.92
2022-08-23T13:50:30.346Z,1.90
2022-08-23T13:53:13.926Z,1.80
2022-08-23T13:55:44.423Z,1.93
2022-08-23T13:58:18.088Z,1.80
2022-08-23T14:00:55.426Z,1.98
2022-08-23T14:03:28.674Z,2.00
2022-08-23T14:05:55.913Z,1.70
2022-08-23T14:08:23.106Z,2.08
2022-08-23T14:10:50.553Z,2.13
2022-08-23T14:13:18.371Z,1.90
2022-08-23T14:18:34.233Z,2.05
2022-08-23T14:21:03.850Z,2.38
2022-08-23T14:23:31.582Z,2.38
2022-08-23T14:25:59.286Z,2.35
2022-08-23T14:28:29.475Z,1.80
2022-08-23T14:30:57.403Z,1.80
2022-08-23T14:33:24.671Z,2.05
2022-08-23T14:35:52.426Z,1.80
2022-08-23T14:38:19.801Z,1.83
2022-08-23T14:40:55.081Z,1.70
2022-08-23T14:43:22.367Z,2.10
2022-08-23T14:45:52.968Z,1.75
2022-08-23T14:48:20.438Z,1.70
2022-08-23T14:50:47.794Z,1.90
2022-08-23T14:53:16.721Z,1.48
2022-08-23T14:55:44.574Z,1.75
2022-08-23T14:58:11.730Z,1.63
2022-08-23T15:00:38.911Z,1.80
2022-08-23T15:03:09.757Z,1.65
2022-08-23T15:05:37.501Z,2.30
2022-08-23T15:08:04.742Z,2.10
2022-08-23T15:13:27.346Z,1.70
2022-08-23T15:15:55.951Z,1.70
2022-08-23T15:18:23.168Z,1.50
2022-08-23T15:20:52.423Z,1.52
2022-08-23T15:23:19.778Z,1.70
2022-08-23T15:25:47.015Z,1.80
2022-08-23T15:28:15.947Z,1.50
2022-08-23T15:30:43.804Z,1.80
2022-08-23T15:33:11.043Z,1.67
2022-08-23T15:35:47.646Z,1.50
2022-08-23T15:38:16.407Z,1.80
2022-08-23T15:40:43.638Z,2.00
2022-08-23T15:43:10.941Z,2.08
2022-08-23T15:45:38.982Z,2.03
2022-08-23T15:48:18.160Z,1.63
2022-08-23T15:50:46.517Z,1.80
2022-08-23T15:53:13.924Z,1.60
2022-08-23T15:55:41.945Z,2.15
2022-08-23T15:58:14.080Z,1.90
2022-08-23T16:00:41.260Z,1.70
2022-08-23T16:03:19.633Z,1.60
2022-08-23T16:05:49.204Z,1.60
2022-08-23T16:08:27.516Z,1.65
2022-08-23T16:10:54.754Z,1.70
2022-08-23T16:13:22.623Z,1.75
2022-08-23T16:15:50.055Z,1.70
2022-08-23T16:18:17.596Z,1.75
2022-08-23T16:20:45.194Z,1.75
2022-08-23T16:23:13.030Z,1.48
2022-08-23T16:25:40.173Z,1.50
2022-08-23T16:28:08.004Z,2.00
2022-08-23T16:30:35.455Z,1.70
2022-08-23T16:33:02.768Z,1.80
2022-08-23T16:35:30.042Z,1.65
2022-08-23T16:37:57.288Z,2.28
2022-08-23T16:40:24.510Z,1.90
2022-08-23T16:42:52.752Z,1.88
2022-08-23T16:45:25.831Z,1.55
2022-08-23T16:47:53.637Z,1.70
2022-08-23T16:50:20.857Z,1.73
2022-08-23T16:52:47.975Z,2.00
2022-08-23T16:55:15.137Z,1.90
2022-08-23T16:57:42.270Z,1.92
2022-08-23T17:00:12.381Z,1.80
2022-08-23T17:02:40.872Z,2.00
2022-08-23T17:05:09.599Z,1.73
2022-08-23T17:07:36.834Z,1.55
2022-08-23T17:10:04.441Z,1.90
2022-08-23T17:12:32.180Z,1.52
2022-08-23T17:14:59.386Z,1.80
2022-08-23T17:17:26.571Z,1.67
2022-08-23T17:19:54.198Z,1.65
2022-08-23T17:22:21.352Z,2.10
2022-08-23T17:24:48.500Z,2.15
2022-08-23T17:27:20.527Z,2.08
2022-08-23T17:29:47.974Z,3.17
2022-08-23T17:32:15.123Z,2.00
2022-08-23T17:34:42.250Z,2.05
2022-08-23T17:37:20.351Z,2.00
2022-08-23T17:39:47.702Z,3.22
2022-08-23T17:42:14.853Z,2.38
2022-08-23T17:44:42.230Z,2.30
2022-08-23T17:47:12.047Z,2.03
2022-08-23T17:49:39.206Z,2.05
2022-08-23T17:52:06.862Z,2.40
2022-08-23T17:54:34.077Z,2.17
2022-08-23T17:57:01.842Z,2.13
2022-08-23T17:59:31.990Z,1.75
2022-08-23T18:01:59.399Z,2.13
2022-08-23T18:04:26.587Z,2.38
2022-08-23T18:06:53.984Z,1.98
2022-08-23T18:09:21.165Z,2.30
2022-08-23T18:11:48.562Z,2.30
2022-08-23T18:14:15.715Z,2.65
2022-08-23T18:16:44.005Z,2.10
2022-08-23T18:19:13.468Z,2.00
2022-08-23T18:21:40.691Z,2.42
2022-08-23T18:24:08.172Z,2.40
2022-08-23T18:26:54.801Z,2.95
2022-08-23T18:29:22.046Z,2.85
2022-08-23T18:31:49.242Z,2.80
2022-08-23T18:34:16.626Z,2.58
2022-08-23T18:36:44.827Z,2.40
2022-08-23T18:39:12.696Z,3.00
2022-08-23T18:41:39.979Z,2.70
2022-08-23T18:44:07.458Z,3.40
2022-08-23T18:46:35.508Z,3.90
2022-08-23T18:49:03.248Z,3.38
2022-08-23T18:51:30.995Z,2.83
2022-08-23T18:53:58.815Z,3.42
2022-08-23T18:56:26.000Z,3.00
2022-08-23T18:58:53.138Z,3.10
2022-08-23T19:01:21.643Z,3.40
2022-08-23T19:03:48.906Z,3.20
2022-08-23T19:06:16.042Z,3.22
2022-08-23T19:08:43.245Z,3.15
2022-08-23T19:11:10.448Z,3.58
2022-08-23T19:13:37.608Z,3.60
2022-08-23T19:16:06.654Z,3.20
2022-08-23T19:18:34.308Z,3.00
2022-08-23T19:21:03.444Z,3.50
2022-08-23T19:23:30.874Z,3.72
2022-08-23T19:25:58.103Z,3.50
2022-08-23T19:28:25.255Z,3.60
2022-08-23T19:30:52.482Z,3.60
2022-08-23T19:33:19.598Z,3.55
2022-08-23T19:35:46.951Z,3.00
2022-08-23T19:38:14.276Z,2.92
2022-08-23T19:40:42.613Z,3.05
2022-08-23T19:43:10.164Z,3.40
2022-08-23T19:45:40.273Z,3.70
2022-08-23T19:48:07.479Z,3.95
2022-08-23T19:50:34.627Z,3.88
2022-08-23T19:53:01.975Z,4.90
2022-08-23T19:55:31.977Z,4.72
2022-08-23T19:57:59.343Z,4.75
2022-08-23T20:00:27.180Z,3.97
2022-08-23T20:02:54.429Z,3.50
2022-08-23T20:05:22.323Z,3.70
2022-08-23T20:07:49.490Z,3.63
2022-08-23T20:10:16.608Z,3.70
2022-08-23T20:12:43.881Z,4.47
2022-08-23T20:15:11.582Z,3.92
2022-08-23T20:17:39.359Z,4.05
2022-08-23T20:20:07.035Z,3.58
2022-08-23T20:22:53.755Z,4.05
2022-08-23T20:25:20.879Z,3.90
2022-08-23T20:27:48.800Z,3.95
2022-08-23T20:30:15.963Z,3.75
2022-08-23T20:32:43.110Z,3.92
2022-08-23T20:35:11.253Z,3.72
2022-08-23T20:37:39.143Z,3.60
2022-08-23T20:40:07.738Z,3.65
2022-08-23T20:42:34.904Z,3.80
2022-08-23T20:45:02.043Z,3.58
2022-08-23T20:47:29.158Z,4.13
2022-08-23T20:49:56.298Z,4.15
2022-08-23T20:52:23.471Z,4.10
2022-08-23T20:54:50.822Z,3.20
2022-08-23T20:57:17.944Z,3.33
2022-08-23T20:59:45.353Z,3.55
2022-08-23T21:02:12.602Z,3.22
2022-08-23T21:04:40.171Z,3.47
2022-08-23T21:07:08.408Z,3.95
2022-08-23T21:09:35.847Z,4.15
2022-08-23T21:12:03.055Z,3.80
2022-08-23T21:14:30.185Z,3.33
2022-08-23T21:16:57.339Z,3.13
2022-08-23T21:19:24.513Z,3.30
2022-08-23T21:21:51.709Z,4.13
2022-08-23T21:24:18.876Z,3.17
2022-08-23T21:26:46.006Z,3.10
2022-08-23T21:29:13.208Z,2.88
2022-08-23T21:31:40.638Z,2.90
2022-08-23T21:34:08.378Z,3.35
2022-08-23T21:36:35.958Z,2.92
2022-08-23T21:39:03.318Z,3.00
2022-08-23T21:41:32.421Z,3.20
2022-08-23T21:43:59.892Z,2.70
2022-08-23T21:46:27.186Z,3.17
2022-08-23T21:48:54.791Z,2.88
2022-08-23T21:51:22.073Z,3.00
2022-08-23T21:53:49.198Z,3.30
2022-08-23T21:56:16.832Z,3.30
2022-08-23T21:58:44.250Z,2.92
2022-08-23T22:01:12.366Z,3.15
2022-08-23T22:03:39.518Z,3.85
2022-08-23T22:06:11.595Z,3.45
2022-08-23T22:08:38.743Z,3.63
2022-08-23T22:11:07.366Z,3.17
2022-08-23T22:13:35.387Z,3.08
2022-08-23T22:16:02.543Z,2.97
2022-08-23T22:18:30.993Z,2.67
2022-08-23T22:20:58.618Z,2.70
2022-08-23T22:23:30.193Z,2.88
2022-08-23T22:25:58.735Z,3.10
2022-08-23T22:28:26.545Z,2.42
2022-08-23T22:30:59.412Z,3.22
2022-08-23T22:33:27.066Z,2.85
2022-08-23T22:35:54.289Z,3.25
2022-08-23T22:38:21.495Z,3.10
2022-08-23T22:40:52.575Z,3.10
2022-08-23T22:43:20.615Z,3.05
2022-08-23T22:45:55.545Z,3.28
2022-08-23T22:50:49.853Z,3.13
2022-08-23T22:53:17.604Z,3.50
2022-08-23T22:55:50.013Z,3.33
2022-08-23T22:58:17.148Z,3.60
2022-08-23T23:00:44.375Z,3.53
2022-08-23T23:03:11.611Z,3.40
2022-08-23T23:05:38.853Z,2.92
2022-08-23T23:08:24.977Z,3.80
2022-08-23T23:10:52.146Z,3.30
2022-08-23T23:13:19.599Z,3.60
2022-08-23T23:15:46.773Z,3.30
2022-08-23T23:18:13.938Z,3.53
2022-08-23T23:20:41.107Z,3.83
2022-08-23T23:23:13.775Z,3.75
2022-08-23T23:25:41.890Z,3.53
2022-08-23T23:28:09.460Z,3.65
2022-08-23T23:30:37.044Z,3.53
2022-08-23T23:33:04.582Z,3.33
2022-08-23T23:35:31.712Z,3.80
2022-08-23T23:37:58.894Z,3.58
2022-08-23T23:40:26.857Z,3.53
2022-08-23T23:42:54.126Z,3.40
2022-08-23T23:45:21.647Z,4.00
2022-08-23T23:47:49.391Z,3.97
2022-08-23T23:50:17.127Z,3.60
2022-08-23T23:52:45.122Z,3.70
2022-08-23T23:55:14.431Z,4.35
2022-08-23T23:57:41.614Z,4.00
